Time;durP1;ratioP1;P1;durP2;ratioP2;P2;SDS_P1;SDS_P2;PMS_P1;PMS_P2;Temp;Humidity;BMP_temperature;BMP_pressure;BME280_temperature;BME280_humidity;BME280_pressure;Samples;Min_cycle;Max_cycle;Signal;HPM_P1;HPM_P2
2022/01/16 00:00:09;;;;;;;;;57.25;43.50;;;;;;;;4994214;28;45514;-92
2022/01/16 00:05:09;;;;;;;;;53.50;42.50;;;;;;;;5017603;28;45369;-92
2022/01/16 00:07:34;;;;;;;;;52.75;41.00;;;;;;;;5009314;28;45356;-92
2022/01/16 00:09:59;;;;;;;;;54.75;43.00;;;;;;;;5224555;22;46267;-91
2022/01/16 00:12:33;;;;;;;;;43.50;33.00;;;;;;;;5028814;28;45269;-93
2022/01/16 00:14:59;;;;;;;;;46.75;36.00;;;;;;;;5002020;28;44779;-92
2022/01/16 00:18:09;;;;;;;;;49.50;34.50;;;;;;;;5016556;28;45179;-92
2022/01/16 00:26:08;;;;;;;;;49.50;35.50;;;;;;;;4985870;28;45420;-90
2022/01/16 00:28:33;;;;;;;;;61.25;45.50;;;;;;;;4963925;28;45499;-92
2022/01/16 00:30:59;;;;;;;;;43.00;38.00;;;;;;;;4978253;28;45378;-90
2022/01/16 00:33:24;;;;;;;;;59.75;44.25;;;;;;;;4968625;28;47092;-89
2022/01/16 00:35:49;;;;;;;;;52.75;42.75;;;;;;;;4983279;28;45796;-90
2022/01/16 00:38:14;;;;;;;;;50.50;40.25;;;;;;;;4985074;28;45698;-91
2022/01/16 00:40:41;;;;;;;;;63.75;45.50;;;;;;;;4991152;28;44835;-91
2022/01/16 00:43:06;;;;;;;;;56.50;41.00;;;;;;;;4983362;28;45416;-90
2022/01/16 00:45:34;;;;;;;;;56.25;42.00;;;;;;;;4981248;28;45671;-91
2022/01/16 00:48:00;;;;;;;;;50.50;39.25;;;;;;;;4980164;28;45445;-91
2022/01/16 00:50:25;;;;;;;;;54.25;42.25;;;;;;;;4976576;28;45647;-91
2022/01/16 00:52:50;;;;;;;;;48.50;38.00;;;;;;;;4984072;28;46839;-91
2022/01/16 00:55:21;;;;;;;;;40.75;35.00;;;;;;;;4982775;28;45517;-91
2022/01/16 00:57:46;;;;;;;;;49.00;40.00;;;;;;;;4967361;28;45559;-91
2022/01/16 01:00:31;;;;;;;;;62.00;45.25;;;;;;;;4975715;28;45461;-91
2022/01/16 01:02:56;;;;;;;;;57.25;40.50;;;;;;;;4971257;28;47485;-92
2022/01/16 01:05:21;;;;;;;;;44.25;39.75;;;;;;;;4985249;28;45262;-92
2022/01/16 01:07:46;;;;;;;;;60.00;42.50;;;;;;;;4983162;28;45633;-91
2022/01/16 01:10:12;;;;;;;;;52.50;44.00;;;;;;;;4964838;28;45580;-90
2022/01/16 01:13:08;;;;;;;;;46.75;41.00;;;;;;;;4981537;28;48322;-90
2022/01/16 01:15:26;;;;;;;;;58.00;44.50;;;;;;;;4981434;28;45343;-91
2022/01/16 01:17:51;;;;;;;;;55.25;43.50;;;;;;;;4988190;28;45571;-91
2022/01/16 01:20:18;;;;;;;;;56.00;45.75;;;;;;;;4985585;28;44814;-91
2022/01/16 01:22:45;;;;;;;;;55.00;42.50;;;;;;;;4990873;28;47586;-91
2022/01/16 01:25:12;;;;;;;;;55.50;41.75;;;;;;;;4987073;28;45320;-91
2022/01/16 01:27:38;;;;;;;;;55.50;43.00;;;;;;;;4981321;28;45283;-91
2022/01/16 01:30:09;;;;;;;;;57.75;44.75;;;;;;;;4959258;28;45510;-91
2022/01/16 01:32:36;;;;;;;;;44.50;41.00;;;;;;;;4977493;28;46187;-91
2022/01/16 01:35:02;;;;;;;;;51.75;41.25;;;;;;;;4977646;28;45452;-91
2022/01/16 01:37:27;;;;;;;;;56.00;44.75;;;;;;;;4979756;28;45351;-91
2022/01/16 01:39:52;;;;;;;;;56.25;45.00;;;;;;;;4985766;28;45432;-90
2022/01/16 01:42:18;;;;;;;;;56.75;41.50;;;;;;;;4981019;28;47961;-91
2022/01/16 01:52:56;;;;;;;;;39.25;32.50;;;;;;;;4980249;28;45424;-90
2022/01/16 01:55:21;;;;;;;;;56.50;44.25;;;;;;;;4981382;28;45355;-91
2022/01/16 01:57:46;;;;;;;;;53.75;41.25;;;;;;;;4984603;28;45556;-91
2022/01/16 02:00:19;;;;;;;;;61.00;44.50;;;;;;;;4969253;28;45459;-90
2022/01/16 02:03:33;;;;;;;;;56.75;42.50;;;;;;;;4986786;28;48258;-91
2022/01/16 02:05:34;;;;;;;;;59.25;43.75;;;;;;;;4966870;28;45284;-90
2022/01/16 02:07:59;;;;;;;;;65.50;48.75;;;;;;;;4981224;28;45404;-91
2022/01/16 02:10:25;;;;;;;;;53.25;42.75;;;;;;;;4978097;28;45468;-91
2022/01/16 02:12:57;;;;;;;;;57.25;41.50;;;;;;;;4982068;28;47956;-91
2022/01/16 02:28:02;;;;;;;;;56.00;42.00;;;;;;;;4971566;28;45308;-91
2022/01/16 02:29:10;;;;;;;;;51.50;45.00;;;;;;;;5060708;22;45375;-90
2022/01/16 02:31:37;;;;;;;;;45.25;38.25;;;;;;;;5046867;28;45887;-90
2022/01/16 02:34:46;;;;;;;;;56.25;42.75;;;;;;;;5030077;28;47327;-90
2022/01/16 02:36:53;;;;;;;;;51.50;40.50;;;;;;;;5045960;28;45728;-90
2022/01/16 02:39:24;;;;;;;;;50.00;38.75;;;;;;;;5057511;28;45514;-89
2022/01/16 02:41:52;;;;;;;;;49.25;41.50;;;;;;;;5043926;28;45376;-90
2022/01/16 02:44:22;;;;;;;;;60.75;42.25;;;;;;;;5044308;28;47690;-90
2022/01/16 02:46:48;;;;;;;;;51.50;42.25;;;;;;;;5021482;28;45361;-90
2022/01/16 02:49:22;;;;;;;;;46.50;38.00;;;;;;;;5037869;28;45380;-90
2022/01/16 02:51:48;;;;;;;;;48.25;36.25;;;;;;;;5037830;28;45499;-90
2022/01/16 02:54:13;;;;;;;;;56.00;43.00;;;;;;;;5052216;28;45552;-90
2022/01/16 02:56:39;;;;;;;;;45.00;38.00;;;;;;;;5020260;28;45735;-90
2022/01/16 02:59:05;;;;;;;;;52.50;37.00;;;;;;;;5055858;28;45317;-90
2022/01/16 03:01:30;;;;;;;;;52.50;41.50;;;;;;;;5023303;28;45383;-90
2022/01/16 03:03:55;;;;;;;;;52.00;44.00;;;;;;;;5042217;28;45769;-90
2022/01/16 03:06:25;;;;;;;;;53.50;42.50;;;;;;;;5050665;28;45557;-90
2022/01/16 03:08:51;;;;;;;;;53.25;44.25;;;;;;;;5052748;28;45456;-90
2022/01/16 03:11:23;;;;;;;;;45.75;40.25;;;;;;;;5028827;28;45797;-89
2022/01/16 03:13:49;;;;;;;;;54.50;40.25;;;;;;;;5060010;28;45677;-91
2022/01/16 03:16:18;;;;;;;;;61.25;44.50;;;;;;;;5044475;28;45210;-90
2022/01/16 03:24:12;;;;;;;;;58.25;42.25;;;;;;;;5179867;22;45195;-90
2022/01/16 03:26:38;;;;;;;;;63.00;44.00;;;;;;;;5024684;28;45422;-90
2022/01/16 03:29:03;;;;;;;;;46.25;32.75;;;;;;;;5226994;22;45915;-90
2022/01/16 03:31:29;;;;;;;;;53.50;43.25;;;;;;;;4970587;28;45567;-90
2022/01/16 03:33:54;;;;;;;;;56.75;44.50;;;;;;;;4996750;28;47362;-90
2022/01/16 03:36:20;;;;;;;;;61.00;41.75;;;;;;;;4972521;28;45520;-90
2022/01/16 03:38:45;;;;;;;;;59.75;43.25;;;;;;;;4989566;28;45566;-90
2022/01/16 03:41:10;;;;;;;;;59.25;40.75;;;;;;;;4973296;28;45427;-90
2022/01/16 03:43:35;;;;;;;;;53.25;43.50;;;;;;;;4988752;28;46301;-90
2022/01/16 03:46:01;;;;;;;;;57.00;45.00;;;;;;;;4972645;28;45561;-90
2022/01/16 03:48:26;;;;;;;;;49.50;42.50;;;;;;;;4989471;28;45463;-90
2022/01/16 03:50:51;;;;;;;;;56.25;44.50;;;;;;;;4995358;28;45467;-90
2022/01/16 03:53:17;;;;;;;;;49.00;40.00;;;;;;;;4983482;28;46472;-89
2022/01/16 03:55:42;;;;;;;;;65.25;46.50;;;;;;;;4981607;28;45307;-90
2022/01/16 03:58:07;;;;;;;;;49.75;40.25;;;;;;;;4980484;28;45380;-90
2022/01/16 04:00:33;;;;;;;;;59.75;46.75;;;;;;;;4987489;28;45449;-90
2022/01/16 04:02:58;;;;;;;;;57.50;41.75;;;;;;;;4972429;28;47144;-90
2022/01/16 04:05:23;;;;;;;;;51.75;41.50;;;;;;;;4989255;28;45448;-88
2022/01/16 04:07:48;;;;;;;;;59.00;42.75;;;;;;;;4972467;28;45529;-90
2022/01/16 04:10:14;;;;;;;;;54.75;45.00;;;;;;;;4973151;28;45321;-90
2022/01/16 04:12:39;;;;;;;;;55.75;41.25;;;;;;;;4975051;28;47426;-90
2022/01/16 04:17:40;;;;;;;;;51.75;41.00;;;;;;;;4976918;28;45391;-90
2022/01/16 04:20:05;;;;;;;;;54.00;41.00;;;;;;;;4977539;28;45478;-90
2022/01/16 04:22:31;;;;;;;;;58.00;41.75;;;;;;;;4964447;28;50738;-90
2022/01/16 04:24:56;;;;;;;;;62.00;44.25;;;;;;;;4969442;28;45723;-91
2022/01/16 04:27:21;;;;;;;;;50.00;42.50;;;;;;;;4992333;28;45463;-90
2022/01/16 04:29:46;;;;;;;;;46.75;34.50;;;;;;;;4990668;28;45515;-90
2022/01/16 04:32:12;;;;;;;;;66.25;46.50;;;;;;;;4978356;28;47973;-88
2022/01/16 04:34:37;;;;;;;;;50.25;40.75;;;;;;;;4983377;28;45326;-90
2022/01/16 04:37:03;;;;;;;;;52.00;43.00;;;;;;;;4983701;28;45574;-90
2022/01/16 04:39:33;;;;;;;;;57.75;43.00;;;;;;;;4999065;28;45544;-90
2022/01/16 04:44:43;;;;;;;;;55.00;43.00;;;;;;;;4975072;28;45932;-90
2022/01/16 04:47:08;;;;;;;;;47.50;39.00;;;;;;;;4976252;28;45370;-91
2022/01/16 04:49:34;;;;;;;;;53.00;42.25;;;;;;;;4976514;28;45466;-91
2022/01/16 04:51:59;;;;;;;;;43.25;37.00;;;;;;;;4991227;28;47512;-91
2022/01/16 04:54:25;;;;;;;;;46.75;38.25;;;;;;;;4974955;28;45357;-91
2022/01/16 04:56:50;;;;;;;;;41.00;35.00;;;;;;;;4991311;28;45343;-90
2022/01/16 04:59:16;;;;;;;;;50.75;40.25;;;;;;;;4975886;28;45328;-91
2022/01/16 05:01:41;;;;;;;;;52.25;40.75;;;;;;;;4974954;28;47403;-90
2022/01/16 05:04:06;;;;;;;;;44.25;33.75;;;;;;;;4976453;28;45313;-91
2022/01/16 05:06:31;;;;;;;;;56.25;42.25;;;;;;;;4973287;28;45304;-91
2022/01/16 05:08:56;;;;;;;;;49.00;40.00;;;;;;;;4976598;28;45400;-91
2022/01/16 05:11:25;;;;;;;;;42.25;32.75;;;;;;;;4977439;28;45503;-91
2022/01/16 05:16:36;;;;;;;;;34.50;29.25;;;;;;;;4976537;28;45514;-90
2022/01/16 05:19:11;;;;;;;;;41.25;29.25;;;;;;;;4992794;28;45449;-91
2022/01/16 05:21:38;;;;;;;;;47.50;36.75;;;;;;;;4985594;28;47365;-91
2022/01/16 05:24:07;;;;;;;;;36.50;31.25;;;;;;;;4983425;28;45449;-91
2022/01/16 05:26:34;;;;;;;;;38.00;28.75;;;;;;;;5006392;28;45365;-91
2022/01/16 05:28:59;;;;;;;;;39.50;30.25;;;;;;;;4981893;28;45615;-91
2022/01/16 05:31:24;;;;;;;;;43.75;33.75;;;;;;;;4995696;28;47036;-91
2022/01/16 05:33:50;;;;;;;;;41.25;32.00;;;;;;;;4971932;28;45557;-90
2022/01/16 05:36:15;;;;;;;;;42.25;31.50;;;;;;;;4975563;28;45300;-89
2022/01/16 05:38:40;;;;;;;;;40.50;27.50;;;;;;;;4990878;28;45428;-90
2022/01/16 05:41:06;;;;;;;;;37.50;34.25;;;;;;;;4974670;28;47436;-91
2022/01/16 05:43:31;;;;;;;;;34.50;32.25;;;;;;;;4975376;28;45530;-91
2022/01/16 05:45:56;;;;;;;;;29.50;27.00;;;;;;;;4975281;28;46821;-90
2022/01/16 05:48:21;;;;;;;;;30.00;24.25;;;;;;;;4974678;28;45719;-91
2022/01/16 05:50:46;;;;;;;;;33.75;20.75;;;;;;;;4976715;28;45466;-90
2022/01/16 05:53:12;;;;;;;;;34.50;23.00;;;;;;;;4976133;28;45487;-91
2022/01/16 05:55:37;;;;;;;;;29.50;26.00;;;;;;;;4990847;28;45698;-91
2022/01/16 05:58:03;;;;;;;;;37.75;27.00;;;;;;;;4973060;28;45599;-91
2022/01/16 06:00:30;;;;;;;;;31.00;23.50;;;;;;;;4975715;28;45709;-90
2022/01/16 06:02:55;;;;;;;;;32.25;29.50;;;;;;;;4987772;28;44855;-91
2022/01/16 06:05:20;;;;;;;;;33.75;29.25;;;;;;;;4990438;28;45321;-90
2022/01/16 06:07:51;;;;;;;;;37.25;27.00;;;;;;;;5010232;28;45291;-91
2022/01/16 06:10:17;;;;;;;;;34.25;29.50;;;;;;;;5019264;28;47270;-91
2022/01/16 06:12:42;;;;;;;;;30.50;26.50;;;;;;;;4989023;28;45435;-90
2022/01/16 06:15:07;;;;;;;;;26.50;22.25;;;;;;;;5000393;28;45815;-90
2022/01/16 06:17:33;;;;;;;;;35.00;25.25;;;;;;;;4985407;28;45374;-91
2022/01/16 06:19:58;;;;;;;;;33.50;27.00;;;;;;;;4983974;28;45512;-90
2022/01/16 06:22:23;;;;;;;;;36.50;33.00;;;;;;;;4990639;28;45496;-91
2022/01/16 06:24:48;;;;;;;;;27.75;24.50;;;;;;;;4989407;28;46449;-91
2022/01/16 06:27:13;;;;;;;;;29.00;24.75;;;;;;;;4990755;28;45587;-91
2022/01/16 06:29:39;;;;;;;;;35.75;27.00;;;;;;;;4986775;28;45706;-90
2022/01/16 06:32:04;;;;;;;;;26.25;23.50;;;;;;;;4974413;28;45567;-91
2022/01/16 06:34:29;;;;;;;;;26.50;20.75;;;;;;;;4991178;28;45603;-90
2022/01/16 06:36:54;;;;;;;;;35.25;27.75;;;;;;;;4975855;28;45444;-91
2022/01/16 06:39:20;;;;;;;;;36.25;29.00;;;;;;;;4993633;28;45520;-91
2022/01/16 06:41:45;;;;;;;;;39.00;26.75;;;;;;;;4994694;28;45351;-90
2022/01/16 06:44:10;;;;;;;;;27.50;22.75;;;;;;;;4993994;28;45449;-90
2022/01/16 06:46:35;;;;;;;;;36.50;22.00;;;;;;;;4994079;28;45424;-90
2022/01/16 06:49:01;;;;;;;;;31.00;24.50;;;;;;;;4993387;28;45641;-90
2022/01/16 06:51:26;;;;;;;;;26.25;22.25;;;;;;;;4992417;28;45584;-90
2022/01/16 06:53:53;;;;;;;;;26.00;20.50;;;;;;;;4991252;28;45720;-90
2022/01/16 06:56:19;;;;;;;;;27.00;23.00;;;;;;;;4977380;28;45645;-90
2022/01/16 06:58:44;;;;;;;;;33.00;23.00;;;;;;;;4997177;28;45602;-90
2022/01/16 07:01:10;;;;;;;;;33.25;21.50;;;;;;;;5001784;28;45301;-90
2022/01/16 07:03:35;;;;;;;;;39.50;25.50;;;;;;;;4983498;28;45338;-90
2022/01/16 07:06:01;;;;;;;;;28.50;22.25;;;;;;;;5002483;28;45358;-88
2022/01/16 07:08:27;;;;;;;;;33.50;25.00;;;;;;;;4998745;28;47192;-89
2022/01/16 07:10:53;;;;;;;;;29.75;21.50;;;;;;;;4974718;28;45822;-90
2022/01/16 07:13:19;;;;;;;;;34.75;26.50;;;;;;;;4975420;28;45426;-91
2022/01/16 07:15:44;;;;;;;;;29.50;25.25;;;;;;;;4991822;28;49083;-91
2022/01/16 07:18:10;;;;;;;;;28.75;23.25;;;;;;;;4993264;28;45633;-90
2022/01/16 07:20:35;;;;;;;;;33.50;23.25;;;;;;;;4991545;28;45692;-90
2022/01/16 07:23:00;;;;;;;;;20.00;19.75;;;;;;;;4975590;28;45375;-90
2022/01/16 07:25:25;;;;;;;;;26.75;21.50;;;;;;;;4978724;28;45414;-90
2022/01/16 07:27:50;;;;;;;;;29.50;23.75;;;;;;;;4991760;28;48310;-89
2022/01/16 07:30:16;;;;;;;;;22.25;21.25;;;;;;;;4991770;28;45700;-90
2022/01/16 07:32:41;;;;;;;;;28.75;20.50;;;;;;;;4993631;28;45411;-90
2022/01/16 07:35:06;;;;;;;;;24.25;20.50;;;;;;;;4976129;28;45322;-90
2022/01/16 07:37:32;;;;;;;;;27.25;20.25;;;;;;;;4975100;28;48478;-89
2022/01/16 07:39:57;;;;;;;;;28.00;23.00;;;;;;;;4975537;28;45626;-89
2022/01/16 07:42:22;;;;;;;;;22.75;17.25;;;;;;;;4974819;28;45750;-90
2022/01/16 07:44:47;;;;;;;;;27.50;23.25;;;;;;;;4990657;28;45624;-90
2022/01/16 07:47:14;;;;;;;;;23.50;16.50;;;;;;;;4972886;28;48429;-89
2022/01/16 07:49:39;;;;;;;;;33.50;23.00;;;;;;;;5016378;28;45451;-90
2022/01/16 07:52:07;;;;;;;;;28.75;23.00;;;;;;;;5004117;28;45275;-88
2022/01/16 07:54:32;;;;;;;;;28.75;22.50;;;;;;;;4982363;28;45390;-90
2022/01/16 07:56:58;;;;;;;;;17.00;15.75;;;;;;;;5005045;28;46505;-91
2022/01/16 07:59:24;;;;;;;;;26.75;21.00;;;;;;;;4997736;28;45377;-90
2022/01/16 08:01:49;;;;;;;;;31.00;22.25;;;;;;;;4981306;28;45543;-92
2022/01/16 08:04:14;;;;;;;;;29.50;20.25;;;;;;;;4991301;28;45515;-90
2022/01/16 08:06:39;;;;;;;;;26.00;20.25;;;;;;;;4992379;28;45743;-90
2022/01/16 08:09:05;;;;;;;;;23.00;20.25;;;;;;;;4972983;28;45714;-89
2022/01/16 08:11:30;;;;;;;;;30.50;20.25;;;;;;;;4991679;28;45414;-89
2022/01/16 08:13:55;;;;;;;;;27.25;20.50;;;;;;;;4997645;28;45554;-89
2022/01/16 08:16:20;;;;;;;;;24.25;24.00;;;;;;;;4999400;28;45362;-89
2022/01/16 08:18:45;;;;;;;;;18.25;16.25;;;;;;;;4975265;28;45417;-89
2022/01/16 08:21:11;;;;;;;;;21.25;17.50;;;;;;;;4991336;28;45870;-90
2022/01/16 08:23:36;;;;;;;;;24.50;20.00;;;;;;;;4993582;28;45432;-89
2022/01/16 08:26:03;;;;;;;;;27.00;21.75;;;;;;;;4997216;28;46555;-90
2022/01/16 08:28:29;;;;;;;;;33.75;24.25;;;;;;;;4996538;28;45179;-90
2022/01/16 08:30:54;;;;;;;;;28.50;23.00;;;;;;;;4995224;28;51038;-88
2022/01/16 08:33:19;;;;;;;;;27.25;22.75;;;;;;;;5000554;28;45424;-91
2022/01/16 08:35:44;;;;;;;;;31.25;26.00;;;;;;;;4993809;28;47338;-92
2022/01/16 08:38:10;;;;;;;;;24.75;22.00;;;;;;;;4979159;28;45662;-92
2022/01/16 08:40:35;;;;;;;;;24.50;19.00;;;;;;;;4985283;28;45432;-93
2022/01/16 08:43:08;;;;;;;;;25.25;23.75;;;;;;;;4988089;28;45376;-92
2022/01/16 08:45:38;;;;;;;;;21.75;17.25;;;;;;;;5007764;28;47169;-96
2022/01/16 08:48:04;;;;;;;;;32.25;27.25;;;;;;;;4989235;28;45984;-91
2022/01/16 08:50:31;;;;;;;;;28.00;16.25;;;;;;;;4983987;28;45373;-95
2022/01/16 08:52:56;;;;;;;;;31.75;23.00;;;;;;;;5002843;28;45451;-93
2022/01/16 08:55:21;;;;;;;;;29.75;20.50;;;;;;;;4995729;28;47476;-92
2022/01/16 08:57:46;;;;;;;;;21.00;17.00;;;;;;;;4993503;28;46338;-91
2022/01/16 09:00:12;;;;;;;;;25.50;20.75;;;;;;;;5001668;28;45293;-91
2022/01/16 09:02:37;;;;;;;;;23.75;20.50;;;;;;;;4998425;28;45523;-91
2022/01/16 09:05:02;;;;;;;;;22.25;20.50;;;;;;;;5000765;28;45588;-92
2022/01/16 09:07:28;;;;;;;;;27.75;18.25;;;;;;;;4996979;28;45713;-91
2022/01/16 09:09:53;;;;;;;;;27.25;20.75;;;;;;;;4990165;28;45224;-90
2022/01/16 09:12:19;;;;;;;;;19.00;16.75;;;;;;;;5001414;28;45396;-91
2022/01/16 09:14:44;;;;;;;;;27.25;17.75;;;;;;;;4997480;28;46127;-91
2022/01/16 09:17:10;;;;;;;;;22.00;18.00;;;;;;;;4996909;28;45587;-91
2022/01/16 09:19:35;;;;;;;;;23.50;17.50;;;;;;;;4997913;28;45384;-90
2022/01/16 09:22:00;;;;;;;;;19.00;17.25;;;;;;;;4992536;28;45302;-91
2022/01/16 09:24:26;;;;;;;;;21.50;16.00;;;;;;;;4984013;28;47111;-91
2022/01/16 09:26:54;;;;;;;;;24.75;21.00;;;;;;;;5006100;28;45318;-92
2022/01/16 09:29:19;;;;;;;;;24.25;21.25;;;;;;;;5010068;28;45298;-93
2022/01/16 09:31:45;;;;;;;;;23.25;21.00;;;;;;;;4990267;28;45342;-92
2022/01/16 09:34:10;;;;;;;;;22.00;21.25;;;;;;;;4993089;28;47209;-91
2022/01/16 09:36:37;;;;;;;;;24.75;19.00;;;;;;;;5003323;28;45357;-95
2022/01/16 09:39:03;;;;;;;;;24.50;22.50;;;;;;;;5010233;28;46668;-95
2022/01/16 09:41:49;;;;;;;;;23.75;21.25;;;;;;;;5021364;28;45037;-96
2022/01/16 09:44:16;;;;;;;;;18.50;17.25;;;;;;;;4993761;28;46072;-96
2022/01/16 09:46:43;;;;;;;;;21.50;19.25;;;;;;;;5163385;22;45552;-96
2022/01/16 09:52:03;;;;;;;;;24.50;20.00;;;;;;;;5661104;22;45472;-94
2022/01/16 09:54:28;;;;;;;;;26.75;18.50;;;;;;;;5015307;28;47663;-95
2022/01/16 09:56:55;;;;;;;;;21.75;15.75;;;;;;;;5006374;28;44769;-96
2022/01/16 09:59:21;;;;;;;;;23.75;17.00;;;;;;;;4988289;28;45663;-96
2022/01/16 10:01:47;;;;;;;;;24.50;21.00;;;;;;;;5004605;28;45414;-96
2022/01/16 10:04:31;;;;;;;;;23.25;17.75;;;;;;;;5005920;28;47511;-96
2022/01/16 10:07:01;;;;;;;;;23.75;22.25;;;;;;;;5017391;28;45451;-96
2022/01/16 10:09:26;;;;;;;;;25.75;22.25;;;;;;;;5007630;28;45295;-96
2022/01/16 10:11:59;;;;;;;;;27.50;17.75;;;;;;;;5009882;28;45286;-94
2022/01/16 10:14:29;;;;;;;;;25.25;21.50;;;;;;;;5005425;28;47075;-96
2022/01/16 10:16:54;;;;;;;;;22.50;19.50;;;;;;;;5002056;28;45461;-96
2022/01/16 10:19:21;;;;;;;;;22.50;18.00;;;;;;;;5005234;28;45457;-96
2022/01/16 10:21:46;;;;;;;;;20.50;18.25;;;;;;;;4998663;28;45646;-96
2022/01/16 10:24:39;;;;;;;;;29.25;18.00;;;;;;;;4985757;28;47133;-96
2022/01/16 10:27:11;;;;;;;;;20.75;19.25;;;;;;;;4990222;28;45525;-96
2022/01/16 10:29:39;;;;;;;;;21.00;14.00;;;;;;;;5001513;28;45363;-95
2022/01/16 10:32:18;;;;;;;;;25.75;17.25;;;;;;;;5011886;28;45548;-96
2022/01/16 10:34:45;;;;;;;;;18.00;17.25;;;;;;;;5005438;28;47314;-95
2022/01/16 10:37:30;;;;;;;;;23.25;20.50;;;;;;;;4996454;28;46273;-96
2022/01/16 10:40:07;;;;;;;;;24.50;18.50;;;;;;;;4992976;28;45531;-96
2022/01/16 10:42:33;;;;;;;;;22.00;18.00;;;;;;;;4997231;28;45506;-94
2022/01/16 10:44:59;;;;;;;;;23.00;21.25;;;;;;;;4985098;28;47257;-94
2022/01/16 10:47:26;;;;;;;;;19.25;18.00;;;;;;;;5020096;28;45530;-94
2022/01/16 10:49:59;;;;;;;;;21.00;17.00;;;;;;;;4999425;28;45413;-95
2022/01/16 10:52:24;;;;;;;;;21.00;15.25;;;;;;;;5034696;28;45489;-96
2022/01/16 10:54:50;;;;;;;;;20.75;17.25;;;;;;;;5026893;28;47553;-95
2022/01/16 10:57:17;;;;;;;;;25.75;21.00;;;;;;;;5022540;28;45749;-95
2022/01/16 10:59:43;;;;;;;;;23.00;18.25;;;;;;;;5021836;28;45344;-93
2022/01/16 11:02:08;;;;;;;;;25.00;23.50;;;;;;;;5015349;28;45613;-95
2022/01/16 11:04:34;;;;;;;;;27.25;19.50;;;;;;;;5023991;28;47371;-94
2022/01/16 11:07:03;;;;;;;;;24.50;19.00;;;;;;;;5007625;28;45737;-96
2022/01/16 11:09:31;;;;;;;;;20.75;18.50;;;;;;;;5009123;28;45397;-96
2022/01/16 11:11:59;;;;;;;;;19.00;15.00;;;;;;;;5021810;28;45551;-94
2022/01/16 11:14:31;;;;;;;;;23.50;17.00;;;;;;;;5017319;28;47345;-95
2022/01/16 11:16:57;;;;;;;;;22.25;18.50;;;;;;;;5026781;28;45448;-93
2022/01/16 11:19:24;;;;;;;;;15.50;14.25;;;;;;;;5024002;28;45391;-96
2022/01/16 11:21:53;;;;;;;;;20.25;16.00;;;;;;;;5031770;28;45587;-96
2022/01/16 11:24:33;;;;;;;;;23.25;21.50;;;;;;;;5030237;28;46279;-96
2022/01/16 11:26:59;;;;;;;;;23.50;18.00;;;;;;;;5023925;28;45325;-95
2022/01/16 11:29:25;;;;;;;;;21.25;20.25;;;;;;;;5030011;28;45361;-96
2022/01/16 11:31:51;;;;;;;;;19.25;17.50;;;;;;;;5120382;22;45924;-91
2022/01/16 11:34:24;;;;;;;;;19.75;19.75;;;;;;;;5014073;28;47342;-96
2022/01/16 11:36:49;;;;;;;;;26.75;21.50;;;;;;;;5015533;28;45320;-95
2022/01/16 11:39:17;;;;;;;;;24.25;21.00;;;;;;;;5016975;28;45425;-94
2022/01/16 11:41:55;;;;;;;;;25.75;19.50;;;;;;;;5015097;28;44782;-96
2022/01/16 11:44:27;;;;;;;;;21.50;19.50;;;;;;;;4995337;28;47490;-96
2022/01/16 11:46:55;;;;;;;;;19.33;17.33;;;;;;;;5011227;28;45473;-96
2022/01/16 11:49:41;;;;;;;;;16.00;15.25;;;;;;;;5011952;28;45701;-96
2022/01/16 11:52:11;;;;;;;;;23.50;18.25;;;;;;;;5149924;22;46333;-96
2022/01/16 12:00:16;;;;;;;;;21.00;20.25;;;;;;;;5866852;22;45992;-96
2022/01/16 12:02:46;;;;;;;;;22.25;22.00;;;;;;;;5036176;22;45492;-96
2022/01/16 12:05:30;;;;;;;;;19.75;18.00;;;;;;;;5103632;22;47263;-96
2022/01/16 12:08:20;;;;;;;;;25.75;19.75;;;;;;;;4989566;28;45239;-96
2022/01/16 12:10:47;;;;;;;;;11.25;10.75;;;;;;;;5006192;28;45525;-96
2022/01/16 12:13:31;;;;;;;;;24.75;19.25;;;;;;;;4989216;28;45591;-92
2022/01/16 12:16:14;;;;;;;;;27.00;17.00;;;;;;;;5004889;28;48099;-94
2022/01/16 12:18:40;;;;;;;;;23.00;19.25;;;;;;;;4996620;28;46128;-95
2022/01/16 12:21:31;;;;;;;;;24.25;23.00;;;;;;;;5009532;28;45404;-96
2022/01/16 12:23:59;;;;;;;;;24.00;22.75;;;;;;;;5003828;28;45045;-96
2022/01/16 12:26:34;;;;;;;;;24.50;17.75;;;;;;;;4992441;28;48255;-90
2022/01/16 12:28:59;;;;;;;;;22.50;22.50;;;;;;;;4977407;28;45742;-93
2022/01/16 12:31:33;;;;;;;;;25.00;23.50;;;;;;;;4994219;28;44720;-95
2022/01/16 12:34:01;;;;;;;;;21.25;17.25;;;;;;;;5001126;28;45160;-95
2022/01/16 12:36:33;;;;;;;;;25.00;20.00;;;;;;;;5000676;28;47366;-96
2022/01/16 12:39:06;;;;;;;;;25.00;22.00;;;;;;;;5025718;28;45530;-90
2022/01/16 12:41:34;;;;;;;;;32.75;27.00;;;;;;;;5007640;28;45394;-93
2022/01/16 12:44:09;;;;;;;;;32.25;23.75;;;;;;;;4996151;28;45315;-94
2022/01/16 12:46:36;;;;;;;;;25.00;24.25;;;;;;;;5000484;28;47364;-92
2022/01/16 12:49:05;;;;;;;;;30.50;20.25;;;;;;;;5005025;28;45941;-95
2022/01/16 12:51:32;;;;;;;;;23.00;19.50;;;;;;;;4992009;28;47792;-93
2022/01/16 12:54:04;;;;;;;;;24.25;20.00;;;;;;;;5000889;28;45452;-94
2022/01/16 12:56:35;;;;;;;;;29.00;21.50;;;;;;;;4991265;28;48397;-95
2022/01/16 12:59:17;;;;;;;;;22.50;21.25;;;;;;;;4998673;28;45918;-92
2022/01/16 13:01:51;;;;;;;;;22.00;21.00;;;;;;;;4986646;28;45250;-96
2022/01/16 13:04:20;;;;;;;;;26.50;21.25;;;;;;;;5015658;28;45449;-91
2022/01/16 13:06:45;;;;;;;;;30.00;28.50;;;;;;;;4970209;28;48236;-95
2022/01/16 13:09:11;;;;;;;;;26.25;19.75;;;;;;;;4983620;28;45443;-94
2022/01/16 13:11:44;;;;;;;;;24.00;22.50;;;;;;;;4979325;28;45412;-94
2022/01/16 13:14:22;;;;;;;;;23.75;18.25;;;;;;;;4989410;28;45697;-94
2022/01/16 13:16:53;;;;;;;;;21.75;18.50;;;;;;;;5012898;28;45517;-96
2022/01/16 13:19:21;;;;;;;;;21.75;21.00;;;;;;;;4995007;28;44952;-93
2022/01/16 13:22:03;;;;;;;;;26.25;19.25;;;;;;;;5004951;28;45341;-96
2022/01/16 13:24:34;;;;;;;;;21.50;19.00;;;;;;;;4981587;28;45428;-96
2022/01/16 13:27:01;;;;;;;;;23.00;22.00;;;;;;;;4983037;28;48511;-95
2022/01/16 13:29:26;;;;;;;;;32.50;23.75;;;;;;;;4982487;28;45855;-95
2022/01/16 13:31:51;;;;;;;;;24.00;20.00;;;;;;;;4990191;28;45336;-95
2022/01/16 13:34:31;;;;;;;;;23.25;22.25;;;;;;;;5005626;28;45319;-94
2022/01/16 13:36:56;;;;;;;;;26.00;21.50;;;;;;;;5007350;28;47316;-94
2022/01/16 13:39:41;;;;;;;;;26.00;24.75;;;;;;;;5014142;28;44739;-96
2022/01/16 13:42:18;;;;;;;;;19.75;14.00;;;;;;;;4986476;28;45394;-96
2022/01/16 13:44:43;;;;;;;;;24.75;22.25;;;;;;;;4986906;28;45429;-96
2022/01/16 13:47:08;;;;;;;;;26.50;21.75;;;;;;;;4987436;28;47471;-96
2022/01/16 13:49:34;;;;;;;;;22.25;20.75;;;;;;;;4985950;28;45904;-96
2022/01/16 13:52:00;;;;;;;;;24.00;19.00;;;;;;;;4995098;28;44728;-96
2022/01/16 13:54:32;;;;;;;;;26.50;19.00;;;;;;;;4994863;28;44928;-96
2022/01/16 13:57:02;;;;;;;;;22.75;19.75;;;;;;;;4992367;28;47760;-96
2022/01/16 13:59:35;;;;;;;;;30.50;26.00;;;;;;;;4998496;28;44934;-96
2022/01/16 14:02:01;;;;;;;;;26.25;21.75;;;;;;;;5020258;28;44767;-96
2022/01/16 14:04:27;;;;;;;;;37.75;28.00;;;;;;;;5002723;28;44847;-96
2022/01/16 14:06:56;;;;;;;;;43.75;37.50;;;;;;;;5004077;28;46942;-96
2022/01/16 14:09:22;;;;;;;;;43.00;37.50;;;;;;;;5009738;28;44692;-96
2022/01/16 14:11:49;;;;;;;;;46.50;40.75;;;;;;;;5009002;28;45522;-96
2022/01/16 14:14:15;;;;;;;;;54.50;42.25;;;;;;;;4994126;28;45220;-96
2022/01/16 14:17:44;;;;;;;;;47.50;36.75;;;;;;;;4980604;28;48369;-96
2022/01/16 14:19:53;;;;;;;;;38.50;31.75;;;;;;;;4990533;28;45470;-96
2022/01/16 14:22:20;;;;;;;;;39.50;32.00;;;;;;;;4987607;28;45351;-96
2022/01/16 14:24:45;;;;;;;;;33.25;27.25;;;;;;;;4998513;28;45246;-96
2022/01/16 14:27:20;;;;;;;;;25.50;24.00;;;;;;;;4989144;28;47107;-96
2022/01/16 14:29:47;;;;;;;;;28.25;24.00;;;;;;;;4987153;28;45465;-96
2022/01/16 14:32:13;;;;;;;;;30.75;26.50;;;;;;;;5000511;28;45492;-96
2022/01/16 14:34:39;;;;;;;;;33.00;30.25;;;;;;;;4982877;28;45335;-96
2022/01/16 14:37:05;;;;;;;;;39.00;30.75;;;;;;;;4988879;28;47330;-96
2022/01/16 14:39:30;;;;;;;;;34.25;28.50;;;;;;;;4999791;28;46182;-96
2022/01/16 14:41:55;;;;;;;;;34.50;30.00;;;;;;;;4997789;28;45445;-96
2022/01/16 14:44:25;;;;;;;;;36.75;28.25;;;;;;;;4996504;28;44771;-96
2022/01/16 14:46:51;;;;;;;;;27.00;21.50;;;;;;;;5008841;28;47120;-96
2022/01/16 14:49:17;;;;;;;;;35.25;30.00;;;;;;;;5003139;28;45358;-96
2022/01/16 14:51:44;;;;;;;;;35.75;30.25;;;;;;;;5007353;28;45451;-95
2022/01/16 14:54:10;;;;;;;;;29.50;28.25;;;;;;;;4992444;28;45484;-96
2022/01/16 14:56:36;;;;;;;;;30.50;23.00;;;;;;;;5011507;28;47054;-96
2022/01/16 14:59:02;;;;;;;;;31.00;26.25;;;;;;;;4996927;28;45427;-96
2022/01/16 15:01:27;;;;;;;;;24.00;20.50;;;;;;;;4986935;28;45434;-94
2022/01/16 15:03:53;;;;;;;;;28.50;25.75;;;;;;;;4995021;28;45448;-96
2022/01/16 15:06:18;;;;;;;;;27.75;24.25;;;;;;;;4987735;28;47011;-96
2022/01/16 15:08:45;;;;;;;;;30.25;25.25;;;;;;;;5006843;28;45523;-96